Taisho Maru — JI3307 — position and weather

sailwx.info

Track history (hours):
 
Tides and Currents Weather Stations Pressure Air Temp Water Temp Dewpoint Dewpoint Depression Visibility Wind Speed Wind Dir Waves Ship Positions

Taisho Maru

Last reported at 2014-Oct-20 05:26 UTC. Time now 2014-Oct-20 13:02 UTC.
Position N 34°38' E 134°49'.

Length 93 m; draft 4.8 m.

Type: Cargo ship. MMSI: 431300084.

Date/timePositionNaut miles runAvg speedWind from/ knotsBaromVisibWave heightAir tempDewpointWater temp
2014-Oct-20 05:26N 34°38' E 134°49'1112.9
2014-Oct-20 04:33N 34°37' E 135°03'1211.7
2014-Oct-20 03:32N 34°24' E 135°02'1313.3
2014-Oct-20 02:34N 34°12' E 134°59'24411.6
2014-Oct-19 05:31N 35°13' E 139°46'1212.2
2014-Oct-19 04:34N 35°24' E 139°42'2 1.5
2014-Oct-19 03:33N 35°26' E 139°41'0 0.0
2014-Oct-19 02:32N 35°26' E 139°41'0 0.0
2014-Oct-19 01:32N 35°26' E 139°41'0 0.0
2014-Oct-19 00:32N 35°26' E 139°41'0 0.0
2014-Oct-18 23:32N 35°26' E 139°41'1 0.8
2014-Oct-18 22:33N 35°25' E 139°42'0 0.0
2014-Oct-18 21:32N 35°25' E 139°42'0 0.0
2014-Oct-18 20:32N 35°25' E 139°42'0 0.0
2014-Oct-18 19:29N 35°25' E 139°42'0 0.0
2014-Oct-18 18:32N 35°25' E 139°42'0 0.0
2014-Oct-18 17:32N 35°25' E 139°42'0 0.0
2014-Oct-18 16:32N 35°25' E 139°42'0 0.0
2014-Oct-18 15:32N 35°25' E 139°42'0 0.1
2014-Oct-18 14:32N 35°25' E 139°42'0 0.0
2014-Oct-18 13:32N 35°25' E 139°42'0 0.0
2014-Oct-18 12:29N 35°25' E 139°42'2 1.8
2014-Oct-18 11:33N 35°26' E 139°44'14 0.6
2014-Oct-17 12:31N 35°34' E 139°58'1111.5
2014-Oct-17 11:33N 35°26' E 139°48'1010.0
2014-Oct-17 10:33N 35°16' E 139°46'247 9.9
2014-Oct-16 09:33N 34°01' E 135°00'1212.5
2014-Oct-16 08:34N 34°13' E 135°05'3 2.7
2014-Oct-16 07:34N 34°14' E 135°08'0 0.0
2014-Oct-16 06:33N 34°14' E 135°08'0 0.0
2014-Oct-16 05:33N 34°14' E 135°08'0 0.0
2014-Oct-16 04:33N 34°14' E 135°08'0 0.0
2014-Oct-16 03:33N 34°14' E 135°08'0 0.0
2014-Oct-16 02:33N 34°14' E 135°08'0 0.0
2014-Oct-16 01:33N 34°14' E 135°08'0 0.0
2014-Oct-16 00:30N 34°14' E 135°08'0 0.1
2014-Oct-15 23:33N 34°14' E 135°08'0 0.1
2014-Oct-15 22:33N 34°14' E 135°08'0 0.0
2014-Oct-15 21:33N 34°14' E 135°08'0 0.0
2014-Oct-15 20:33N 34°14' E 135°08'0 0.0
2014-Oct-15 19:33N 34°14' E 135°08'2 2.4
2014-Oct-15 18:33N 34°15' E 135°05'1212.0
2014-Oct-15 17:33N 34°03' E 135°01'2 0.1
2014-Oct-14 18:31N 34°01' E 135°00'1212.9
2014-Oct-14 17:33N 34°13' E 135°05'3 2.9
2014-Oct-14 16:34N 34°14' E 135°08'0 0.0
2014-Oct-14 15:31N 34°14' E 135°08'0 0.0
2014-Oct-14 14:31N 34°14' E 135°08'0 0.0
2014-Oct-14 13:31N 34°14' E 135°08'0 0.0
2014-Oct-14 12:31N 34°14' E 135°08'0 0.0
2014-Oct-14 11:31N 34°14' E 135°08'2 2.5
2014-Oct-14 10:33N 34°15' E 135°05'0 0.1
2014-Oct-14 09:28N 34°15' E 135°05'2 1.9
2014-Oct-14 08:33N 34°15' E 135°03'1110.7
2014-Oct-14 07:33N 34°25' E 135°01'1211.6
2014-Oct-14 06:33N 34°37' E 135°01'1612.6
2014-Oct-14 05:19N 34°40' E 134°42'  
2014-Oct-10 10:33N 34°40' E 134°43'1514.8
2014-Oct-10 09:33N 34°38' E 135°00'1413.8
2014-Oct-10 08:34N 34°36' E 135°17'8 8.1
2014-Oct-10 07:33N 34°34' E 135°27'0 0.0
2014-Oct-10 06:26N 34°34' E 135°27'0 0.0
2014-Oct-10 05:32N 34°34' E 135°27'  
Track history (hours):
 
Tides and Currents Weather Stations Pressure Air Temp Water Temp Dewpoint Dewpoint Depression Visibility Wind Speed Wind Dir Waves Ship Positions

Taisho Maru

Last reported at 2014-Oct-20 05:26 UTC. Time now 2014-Oct-20 13:02 UTC.
Position N 34°38' E 134°49'.

Length 93 m; draft 4.8 m.

Type: Cargo ship. MMSI: 431300084.

Date/timePositionNaut miles runAvg speedWind from/ knotsBaromVisibWave heightAir tempDewpointWater temp
2014-Oct-20 05:26N 34°38' E 134°49'1112.9
2014-Oct-20 04:33N 34°37' E 135°03'1211.7
2014-Oct-20 03:32N 34°24' E 135°02'1313.3
2014-Oct-20 02:34N 34°12' E 134°59'24411.6
2014-Oct-19 05:31N 35°13' E 139°46'1212.2
2014-Oct-19 04:34N 35°24' E 139°42'2 1.5
2014-Oct-19 03:33N 35°26' E 139°41'0 0.0
2014-Oct-19 02:32N 35°26' E 139°41'0 0.0
2014-Oct-19 01:32N 35°26' E 139°41'0 0.0
2014-Oct-19 00:32N 35°26' E 139°41'0 0.0
2014-Oct-18 23:32N 35°26' E 139°41'1 0.8
2014-Oct-18 22:33N 35°25' E 139°42'0 0.0
2014-Oct-18 21:32N 35°25' E 139°42'0 0.0
2014-Oct-18 20:32N 35°25' E 139°42'0 0.0
2014-Oct-18 19:29N 35°25' E 139°42'0 0.0
2014-Oct-18 18:32N 35°25' E 139°42'0 0.0
2014-Oct-18 17:32N 35°25' E 139°42'0 0.0
2014-Oct-18 16:32N 35°25' E 139°42'0 0.0
2014-Oct-18 15:32N 35°25' E 139°42'0 0.1
2014-Oct-18 14:32N 35°25' E 139°42'0 0.0
2014-Oct-18 13:32N 35°25' E 139°42'0 0.0
2014-Oct-18 12:29N 35°25' E 139°42'2 1.8
2014-Oct-18 11:33N 35°26' E 139°44'14 0.6
2014-Oct-17 12:31N 35°34' E 139°58'1111.5
2014-Oct-17 11:33N 35°26' E 139°48'1010.0
2014-Oct-17 10:33N 35°16' E 139°46'247 9.9
2014-Oct-16 09:33N 34°01' E 135°00'1212.5
2014-Oct-16 08:34N 34°13' E 135°05'3 2.7
2014-Oct-16 07:34N 34°14' E 135°08'0 0.0
2014-Oct-16 06:33N 34°14' E 135°08'0 0.0
2014-Oct-16 05:33N 34°14' E 135°08'0 0.0
2014-Oct-16 04:33N 34°14' E 135°08'0 0.0
2014-Oct-16 03:33N 34°14' E 135°08'0 0.0
2014-Oct-16 02:33N 34°14' E 135°08'0 0.0
2014-Oct-16 01:33N 34°14' E 135°08'0 0.0
2014-Oct-16 00:30N 34°14' E 135°08'0 0.1
2014-Oct-15 23:33N 34°14' E 135°08'0 0.1
2014-Oct-15 22:33N 34°14' E 135°08'0 0.0
2014-Oct-15 21:33N 34°14' E 135°08'0 0.0
2014-Oct-15 20:33N 34°14' E 135°08'0 0.0
2014-Oct-15 19:33N 34°14' E 135°08'2 2.4
2014-Oct-15 18:33N 34°15' E 135°05'1212.0
2014-Oct-15 17:33N 34°03' E 135°01'2 0.1
2014-Oct-14 18:31N 34°01' E 135°00'1212.9
2014-Oct-14 17:33N 34°13' E 135°05'3 2.9
2014-Oct-14 16:34N 34°14' E 135°08'0 0.0
2014-Oct-14 15:31N 34°14' E 135°08'0 0.0
2014-Oct-14 14:31N 34°14' E 135°08'0 0.0
2014-Oct-14 13:31N 34°14' E 135°08'0 0.0
2014-Oct-14 12:31N 34°14' E 135°08'0 0.0
2014-Oct-14 11:31N 34°14' E 135°08'2 2.5
2014-Oct-14 10:33N 34°15' E 135°05'0 0.1
2014-Oct-14 09:28N 34°15' E 135°05'2 1.9
2014-Oct-14 08:33N 34°15' E 135°03'1110.7
2014-Oct-14 07:33N 34°25' E 135°01'1211.6
2014-Oct-14 06:33N 34°37' E 135°01'1612.6
2014-Oct-14 05:19N 34°40' E 134°42'  
2014-Oct-10 10:33N 34°40' E 134°43'1514.8
2014-Oct-10 09:33N 34°38' E 135°00'1413.8
2014-Oct-10 08:34N 34°36' E 135°17'8 8.1
2014-Oct-10 07:33N 34°34' E 135°27'0 0.0
2014-Oct-10 06:26N 34°34' E 135°27'0 0.0
2014-Oct-10 05:32N 34°34' E 135°27'  

Dump ship's entire track history